createdAt,value
2022-11-20T00:00:09.260Z,98.2
2022-11-20T00:01:25.562Z,98.1
2022-11-20T00:02:41.867Z,98
2022-11-20T00:03:58.154Z,97.9
2022-11-20T00:05:14.445Z,97.7
2022-11-20T00:06:30.737Z,97.7
2022-11-20T00:07:47.040Z,97.1
2022-11-20T00:09:03.333Z,96.8
2022-11-20T00:10:19.626Z,96.3
2022-11-20T00:11:35.931Z,95.9
2022-11-20T00:12:52.000Z,96.2
2022-11-20T00:14:08.525Z,96.5
2022-11-20T00:15:24.809Z,96.8
2022-11-20T00:16:40.119Z,97.1
2022-11-20T00:17:56.431Z,97.1
2022-11-20T00:19:12.720Z,97.3
2022-11-20T00:20:29.016Z,97.5
2022-11-20T00:21:45.313Z,97.5
2022-11-20T00:23:01.612Z,97.4
2022-11-20T00:24:17.895Z,97
2022-11-20T00:25:34.198Z,97
2022-11-20T00:26:50.483Z,96.9
2022-11-20T00:28:06.779Z,96.8
2022-11-20T00:29:23.090Z,96.8
2022-11-20T00:30:39.389Z,97
2022-11-20T00:31:55.672Z,97.1
2022-11-20T00:33:10.989Z,97.5
2022-11-20T00:34:27.275Z,97.8
2022-11-20T00:35:43.580Z,97.7
2022-11-20T00:36:59.882Z,97.8
2022-11-20T00:38:16.166Z,97.8
2022-11-20T00:39:32.458Z,97.6
2022-11-20T00:40:48.758Z,97.3
2022-11-20T00:42:05.058Z,97.3
2022-11-20T00:44:36.672Z,96.8
2022-11-20T00:45:51.996Z,96.8
2022-11-20T00:47:07.299Z,97
2022-11-20T00:48:23.588Z,97.3
2022-11-20T00:49:39.882Z,97.5
2022-11-20T00:50:55.211Z,97.6
2022-11-20T00:52:10.529Z,98
2022-11-20T00:53:26.816Z,98
2022-11-20T00:54:43.105Z,97.9
2022-11-20T00:55:59.415Z,97.8
2022-11-20T00:57:15.691Z,97.4
2022-11-20T00:58:31.993Z,96.6
2022-11-20T00:59:48.312Z,96.3
2022-11-20T01:01:04.580Z,95.6
2022-11-20T01:02:20.895Z,95.8
2022-11-20T01:03:37.184Z,96.5
2022-11-20T01:04:53.469Z,96.3
2022-11-20T01:06:09.777Z,95.8
2022-11-20T01:07:26.075Z,95.6
2022-11-20T01:08:41.376Z,96.1
2022-11-20T01:09:57.671Z,96.8
2022-11-20T01:11:13.968Z,96.5
2022-11-20T01:12:30.258Z,96.1
2022-11-20T01:13:46.565Z,95.7
2022-11-20T01:15:02.848Z,95.5
2022-11-20T01:16:19.158Z,95.6
2022-11-20T01:17:35.448Z,95.8
2022-11-20T01:18:51.746Z,95.9
2022-11-20T01:20:08.044Z,95.3
2022-11-20T01:21:24.335Z,95.1
2022-11-20T01:22:40.629Z,95.1
2022-11-20T01:23:56.923Z,96.1
2022-11-20T01:25:12.236Z,97.1
2022-11-20T01:26:28.536Z,97.6
2022-11-20T01:27:44.837Z,97.9
2022-11-20T01:29:01.137Z,98.2
2022-11-20T01:30:17.433Z,98.2
2022-11-20T01:31:33.719Z,98.2
2022-11-20T01:32:50.011Z,98.1
2022-11-20T01:34:06.315Z,98
2022-11-20T01:35:22.601Z,98
2022-11-20T01:36:38.896Z,97.9
2022-11-20T01:37:55.199Z,97.9
2022-11-20T01:39:11.499Z,97.9
2022-11-20T01:40:27.784Z,97.9
2022-11-20T01:41:43.106Z,97.9
2022-11-20T01:42:59.390Z,98
2022-11-20T01:44:15.696Z,98.1
2022-11-20T01:45:31.983Z,98.2
2022-11-20T01:48:04.578Z,98.2
2022-11-20T01:49:20.876Z,98.1
2022-11-20T01:50:37.169Z,98.3
2022-11-20T01:51:53.468Z,98.3
2022-11-20T01:53:09.765Z,98.4
2022-11-20T01:54:26.059Z,98.5
2022-11-20T01:55:42.361Z,98.4
2022-11-20T01:56:58.655Z,97.8
2022-11-20T01:58:13.967Z,97.5
2022-11-20T01:59:30.263Z,97
2022-11-20T02:00:46.565Z,96.5
2022-11-20T02:03:19.149Z,96.9
2022-11-20T02:04:35.441Z,97.3
2022-11-20T02:05:51.737Z,97.6
2022-11-20T02:07:08.034Z,97.7
2022-11-20T02:08:24.321Z,98
2022-11-20T02:09:40.618Z,98.1
2022-11-20T02:10:56.929Z,98
2022-11-20T02:12:13.216Z,97.8
2022-11-20T02:13:29.506Z,97.8
2022-11-20T02:14:44.834Z,97.5
2022-11-20T02:16:01.125Z,97.6
2022-11-20T02:17:17.410Z,97.6
2022-11-20T02:18:33.718Z,97.3
2022-11-20T02:19:50.015Z,96.9
2022-11-20T02:21:06.295Z,97
2022-11-20T02:22:22.602Z,97.1
2022-11-20T02:23:38.894Z,96.9
2022-11-20T02:24:55.195Z,96.9
2022-11-20T02:26:11.491Z,96.9
2022-11-20T02:27:26.805Z,97.4
2022-11-20T02:28:42.110Z,98
2022-11-20T02:29:58.413Z,98.3
2022-11-20T02:31:14.712Z,98.5
2022-11-20T02:32:31.001Z,98.7
2022-11-20T02:33:47.295Z,98.6
2022-11-20T02:35:03.592Z,98.6
2022-11-20T02:36:19.888Z,98.5
2022-11-20T02:37:35.201Z,98.3
2022-11-20T02:38:50.519Z,97.6
2022-11-20T02:40:06.807Z,97.2
2022-11-20T02:41:23.119Z,97
2022-11-20T02:42:39.397Z,97.4
2022-11-20T02:43:55.712Z,97.7
2022-11-20T02:45:12.001Z,98
2022-11-20T02:46:28.295Z,98.2
2022-11-20T02:47:44.593Z,98.4
2022-11-20T02:49:00.888Z,98.5
2022-11-20T02:50:17.185Z,98.6
2022-11-20T02:51:33.488Z,98.5
2022-11-20T02:52:49.771Z,98.5
2022-11-20T02:54:06.070Z,98.5
2022-11-20T02:55:21.380Z,98.4
2022-11-20T02:56:37.679Z,98.4
2022-11-20T02:57:53.981Z,98.4
2022-11-20T02:59:10.274Z,98.4
2022-11-20T03:00:26.571Z,98.2
2022-11-20T03:01:42.853Z,98.2
2022-11-20T03:02:59.000Z,97.8
2022-11-20T03:04:15.441Z,96.9
2022-11-20T03:05:31.752Z,96.1
2022-11-20T03:06:48.042Z,95.6
2022-11-20T03:08:04.349Z,95.3
2022-11-20T03:09:20.626Z,95.1
2022-11-20T03:11:53.227Z,95.9
2022-11-20T03:13:08.534Z,96.6
2022-11-20T03:14:24.824Z,96.7
2022-11-20T03:15:41.134Z,97.2
2022-11-20T03:16:57.425Z,97.2
2022-11-20T03:18:13.715Z,97.6
2022-11-20T03:19:30.010Z,97.8
2022-11-20T03:20:46.316Z,98
2022-11-20T03:22:02.614Z,97.6
2022-11-20T03:23:18.896Z,97.4
2022-11-20T03:24:35.194Z,97.6
2022-11-20T03:25:51.492Z,97.9
2022-11-20T03:27:07.788Z,97.9
2022-11-20T03:28:24.085Z,97.9
2022-11-20T03:29:39.393Z,98.2
2022-11-20T03:30:54.724Z,98.2
2022-11-20T03:32:11.131Z,98
2022-11-20T03:33:27.431Z,97.8
2022-11-20T03:34:42.742Z,97.7
2022-11-20T03:35:58.053Z,97.6
2022-11-20T03:37:14.351Z,97.7
2022-11-20T03:38:30.652Z,97.6
2022-11-20T03:39:46.942Z,96.9
2022-11-20T03:41:03.249Z,96.9
2022-11-20T03:42:18.566Z,97.2
2022-11-20T03:43:34.851Z,97.3
2022-11-20T03:44:51.157Z,97.3
2022-11-20T03:46:07.434Z,97
2022-11-20T03:47:23.750Z,96.8
2022-11-20T03:49:56.332Z,96.9
2022-11-20T03:51:12.627Z,96.9
2022-11-20T03:52:28.932Z,96.5
2022-11-20T03:53:45.219Z,96.1
2022-11-20T03:55:01.517Z,95.9
2022-11-20T03:56:17.807Z,95.9
2022-11-20T03:57:34.097Z,96
2022-11-20T03:58:49.417Z,96.1
2022-11-20T04:00:05.710Z,96.3
2022-11-20T04:01:22.000Z,96.3
2022-11-20T04:02:37.330Z,96.5
2022-11-20T04:03:52.632Z,96.5
2022-11-20T04:05:08.944Z,96.6
2022-11-20T04:06:24.257Z,96.7
2022-11-20T04:07:39.573Z,96.7
2022-11-20T04:10:12.160Z,96.8
2022-11-20T04:11:28.456Z,96.6
2022-11-20T04:12:44.741Z,96.9
2022-11-20T04:14:01.041Z,97.1
2022-11-20T04:15:17.338Z,97.2
2022-11-20T04:16:33.634Z,97.5
2022-11-20T04:17:49.927Z,97.5
2022-11-20T04:19:06.221Z,97.4
2022-11-20T04:20:22.515Z,97.5
2022-11-20T04:21:38.812Z,97.8
2022-11-20T04:22:55.106Z,98
2022-11-20T04:24:10.426Z,97.8
2022-11-20T04:25:26.729Z,98
2022-11-20T04:27:59.317Z,98.3
2022-11-20T04:29:14.621Z,98.4
2022-11-20T04:30:29.951Z,98.3
2022-11-20T04:31:46.227Z,98.2
2022-11-20T04:34:18.822Z,98.1
2022-11-20T04:35:35.119Z,97.8
2022-11-20T04:36:51.424Z,97.5
2022-11-20T04:38:07.709Z,97.1
2022-11-20T04:39:24.001Z,96.6
2022-11-20T04:40:40.307Z,96.5
2022-11-20T04:41:56.604Z,96.8
2022-11-20T04:43:12.896Z,96.7
2022-11-20T04:44:29.189Z,96.7
2022-11-20T04:45:45.496Z,96.5
2022-11-20T04:47:00.810Z,96.8
2022-11-20T04:48:17.100Z,97.1
2022-11-20T04:50:49.696Z,96.6
2022-11-20T04:52:04.999Z,96.5
2022-11-20T04:53:20.313Z,96.2
2022-11-20T04:54:36.618Z,96.5
2022-11-20T04:55:52.918Z,96.5
2022-11-20T04:57:09.199Z,96.7
2022-11-20T04:58:25.510Z,96.3
2022-11-20T04:59:41.791Z,96.1
2022-11-20T05:00:58.094Z,96.3
2022-11-20T05:02:14.388Z,96.8
2022-11-20T05:03:30.689Z,96.9
2022-11-20T05:04:46.983Z,97.1
2022-11-20T05:06:02.295Z,97.2
2022-11-20T05:07:17.606Z,97.3
2022-11-20T05:08:33.897Z,97.5
2022-11-20T05:09:50.209Z,97.6
2022-11-20T05:11:06.489Z,97.8
2022-11-20T05:12:22.793Z,97.5
2022-11-20T05:13:39.090Z,97.4
2022-11-20T05:14:55.391Z,97.5
2022-11-20T05:16:11.689Z,97.8
2022-11-20T05:17:27.969Z,97.9
2022-11-20T05:18:44.261Z,98.2
2022-11-20T05:19:59.582Z,98
2022-11-20T05:21:14.899Z,98
2022-11-20T05:22:31.201Z,97.8
2022-11-20T05:23:47.496Z,97.8
2022-11-20T05:25:03.790Z,98
2022-11-20T05:26:20.094Z,97.9
2022-11-20T05:27:36.370Z,97.9
2022-11-20T05:28:52.670Z,97.7
2022-11-20T05:30:08.970Z,97.1
2022-11-20T05:31:25.267Z,96.1
2022-11-20T05:32:41.566Z,95.3
2022-11-20T05:33:57.849Z,95.1
2022-11-20T05:35:14.153Z,95.4
2022-11-20T05:36:30.453Z,95.7
2022-11-20T05:37:45.769Z,95.8
2022-11-20T05:39:02.050Z,96
2022-11-20T05:40:18.358Z,96
2022-11-20T05:41:34.654Z,96.6
2022-11-20T05:42:50.951Z,97
2022-11-20T05:44:07.240Z,97.3
2022-11-20T05:45:23.537Z,97.3
2022-11-20T05:46:38.842Z,97.2
2022-11-20T05:47:54.174Z,97.2
2022-11-20T05:49:10.459Z,97.4
2022-11-20T05:50:26.755Z,97.3
2022-11-20T05:51:42.065Z,97.3
2022-11-20T05:52:58.499Z,97.2
2022-11-20T05:54:14.779Z,96.8
2022-11-20T05:55:31.085Z,96.3
2022-11-20T05:56:47.328Z,95.7
2022-11-20T05:58:03.628Z,95.8
2022-11-20T05:59:19.906Z,96
2022-11-20T06:00:36.176Z,96
2022-11-20T06:01:52.406Z,96.5
2022-11-20T06:03:08.651Z,96.6
2022-11-20T06:04:24.887Z,96.7
2022-11-20T06:05:41.144Z,96.4
2022-11-20T06:06:57.371Z,96.1
2022-11-20T06:08:13.620Z,96.2
2022-11-20T06:09:28.881Z,96.5
2022-11-20T06:10:45.120Z,96.5
2022-11-20T06:12:01.360Z,96.1
2022-11-20T06:13:17.609Z,96.2
2022-11-20T06:14:33.855Z,96.6
2022-11-20T06:15:50.090Z,97
2022-11-20T06:17:06.338Z,97.2
2022-11-20T06:18:22.574Z,97.2
2022-11-20T06:19:38.810Z,97.2
2022-11-20T06:20:55.063Z,97
2022-11-20T06:22:11.287Z,97
2022-11-20T06:23:27.539Z,96.9
2022-11-20T06:24:43.789Z,96.8
2022-11-20T06:25:59.036Z,96.9
2022-11-20T06:27:15.279Z,97.1
2022-11-20T06:28:31.517Z,97.1
2022-11-20T06:29:47.761Z,97
2022-11-20T06:31:04.007Z,97.1
2022-11-20T06:32:20.256Z,97.1
2022-11-20T06:33:36.497Z,97.1
2022-11-20T06:34:52.739Z,97
2022-11-20T06:36:08.983Z,97
2022-11-20T06:37:25.224Z,96.9
2022-11-20T06:38:41.463Z,97
2022-11-20T06:39:57.706Z,97
2022-11-20T06:41:13.947Z,97
2022-11-20T06:42:29.190Z,97
2022-11-20T06:43:45.429Z,96.9
2022-11-20T06:45:01.691Z,96.7
2022-11-20T06:46:17.927Z,96.2
2022-11-20T06:47:34.176Z,96.5
2022-11-20T06:48:50.417Z,96.5
2022-11-20T06:50:06.639Z,96.3
2022-11-20T06:51:22.897Z,96.3
2022-11-20T06:52:39.127Z,96.6
2022-11-20T06:53:55.375Z,96.5
2022-11-20T06:55:11.620Z,96.5
2022-11-20T06:56:27.850Z,96.4
2022-11-20T06:57:44.097Z,96.3
2022-11-20T06:58:59.364Z,96.5
2022-11-20T07:00:15.599Z,96.5
2022-11-20T07:01:31.848Z,96.3
2022-11-20T07:04:04.328Z,96.1
2022-11-20T07:05:20.559Z,96.2
2022-11-20T07:06:36.816Z,96
2022-11-20T07:07:53.046Z,96
2022-11-20T07:09:09.284Z,95.8
2022-11-20T07:10:25.537Z,96.1
2022-11-20T07:11:41.770Z,96.1
2022-11-20T07:12:58.018Z,96
2022-11-20T07:14:14.253Z,96.2
2022-11-20T07:15:29.513Z,96.2
2022-11-20T07:16:45.762Z,96
2022-11-20T07:18:02.007Z,95.8
2022-11-20T07:19:18.242Z,95.9
2022-11-20T07:20:34.481Z,96
2022-11-20T07:21:50.736Z,96.2
2022-11-20T07:23:06.979Z,96.2
2022-11-20T07:24:23.000Z,96.4
2022-11-20T07:25:39.452Z,96.2
2022-11-20T07:26:55.685Z,96.1
2022-11-20T07:28:11.930Z,96.5
2022-11-20T07:29:28.176Z,96.6
2022-11-20T07:30:44.422Z,96.8
2022-11-20T07:31:59.674Z,97.1
2022-11-20T07:33:15.916Z,97.1
2022-11-20T07:34:32.153Z,97
2022-11-20T07:35:48.412Z,97
2022-11-20T07:37:04.652Z,96.9
2022-11-20T07:38:20.895Z,96.9
2022-11-20T07:39:37.134Z,96.9
2022-11-20T07:40:53.372Z,96.9
2022-11-20T07:42:09.602Z,96.9
2022-11-20T07:43:25.844Z,96.8
2022-11-20T07:44:42.096Z,96.7
2022-11-20T07:45:58.341Z,96.5
2022-11-20T07:47:14.583Z,96.3
2022-11-20T07:48:29.841Z,96.2
2022-11-20T07:49:46.083Z,96.3
2022-11-20T07:51:02.313Z,96.1
2022-11-20T07:52:18.564Z,95.9
2022-11-20T07:53:34.804Z,95.9
2022-11-20T07:54:51.054Z,95.9
2022-11-20T07:56:07.290Z,95.8
2022-11-20T07:57:22.557Z,95.6
2022-11-20T07:58:38.783Z,95.7
2022-11-20T07:59:55.029Z,95.9
2022-11-20T08:01:11.282Z,96
2022-11-20T08:02:27.513Z,96
2022-11-20T08:03:43.749Z,96
2022-11-20T08:05:00.001Z,96
2022-11-20T08:06:16.241Z,96
2022-11-20T08:07:32.478Z,96
2022-11-20T08:08:48.715Z,95.8
2022-11-20T08:11:21.210Z,96.1
2022-11-20T08:12:37.448Z,96.1
2022-11-20T08:13:52.707Z,96.1
2022-11-20T08:15:08.946Z,96
2022-11-20T08:16:25.188Z,96
2022-11-20T08:18:57.665Z,96.1
2022-11-20T08:20:13.923Z,96
2022-11-20T08:21:30.161Z,95.9
2022-11-20T08:22:46.405Z,96.1
2022-11-20T08:24:02.640Z,96.2
2022-11-20T08:25:18.880Z,96.1
2022-11-20T08:26:35.122Z,96.1
2022-11-20T08:27:51.366Z,96.3
2022-11-20T08:29:07.597Z,96.2
2022-11-20T08:30:22.871Z,96.2
2022-11-20T08:31:39.110Z,96.2
2022-11-20T08:32:55.338Z,96.2
2022-11-20T08:34:11.586Z,96.5
2022-11-20T08:35:27.827Z,96.4
2022-11-20T08:36:44.062Z,96.4
2022-11-20T08:38:00.311Z,96.5
2022-11-20T08:39:16.549Z,96.7
2022-11-20T08:40:32.789Z,96.7
2022-11-20T08:41:49.029Z,96.3
2022-11-20T08:43:05.276Z,96.1
2022-11-20T08:44:21.518Z,96.1
2022-11-20T08:45:37.762Z,96.3
2022-11-20T08:46:53.015Z,96.3
2022-11-20T08:48:09.268Z,96.4
2022-11-20T08:49:25.510Z,96.3
2022-11-20T08:50:41.738Z,96.2
2022-11-20T08:51:57.984Z,96.6
2022-11-20T08:53:14.217Z,96.7
2022-11-20T08:54:30.464Z,96.4
2022-11-20T08:55:46.719Z,96.3
2022-11-20T08:57:02.960Z,96.3
2022-11-20T08:58:19.199Z,96
2022-11-20T08:59:35.425Z,96.1
2022-11-20T09:00:51.670Z,96.5
2022-11-20T09:02:07.914Z,96.6
2022-11-20T09:03:23.183Z,96.7
2022-11-20T09:04:39.423Z,96.5
2022-11-20T09:05:55.648Z,96.5
2022-11-20T09:07:11.903Z,96.9
2022-11-20T09:08:28.146Z,96.9
2022-11-20T09:09:44.382Z,97
2022-11-20T09:11:00.631Z,97
2022-11-20T09:12:16.859Z,96.9
2022-11-20T09:13:33.097Z,96.8
2022-11-20T09:14:49.354Z,96.5
2022-11-20T09:16:05.593Z,96
2022-11-20T09:17:21.822Z,95.6
2022-11-20T09:18:38.074Z,95.5
2022-11-20T09:19:53.322Z,95.4
2022-11-20T09:21:09.568Z,95.4
2022-11-20T09:22:25.806Z,95.2
2022-11-20T09:23:42.046Z,95.3
2022-11-20T09:24:58.287Z,95.2
2022-11-20T09:26:14.530Z,94.9
2022-11-20T09:27:30.785Z,95.3
2022-11-20T09:28:47.025Z,95.5
2022-11-20T09:30:03.266Z,95.5
2022-11-20T09:31:19.510Z,95.4
2022-11-20T09:32:35.745Z,95.2
2022-11-20T09:33:51.975Z,95.1
2022-11-20T09:35:08.218Z,95
2022-11-20T09:36:23.486Z,94.9
2022-11-20T09:37:39.713Z,95.1
2022-11-20T09:38:55.968Z,95.5
2022-11-20T09:40:12.212Z,95.4
2022-11-20T09:41:28.440Z,94.9
2022-11-20T09:42:44.698Z,94.9
2022-11-20T09:44:00.928Z,95.2
2022-11-20T09:45:17.166Z,95.1
2022-11-20T09:46:33.415Z,95.4
2022-11-20T09:47:49.662Z,95.1
2022-11-20T09:49:05.902Z,95.1
2022-11-20T09:50:22.131Z,94.7
2022-11-20T09:51:38.385Z,95.1
2022-11-20T09:52:53.637Z,95.1
2022-11-20T09:55:26.124Z,95.1
2022-11-20T09:56:42.363Z,95.1
2022-11-20T09:57:58.597Z,94.9
2022-11-20T09:59:14.843Z,94.3
2022-11-20T10:00:31.089Z,94.3
2022-11-20T10:01:47.314Z,94.5
2022-11-20T10:03:03.565Z,95
2022-11-20T10:04:19.814Z,94.9
2022-11-20T10:05:36.042Z,95.2
2022-11-20T10:06:52.291Z,95.2
2022-11-20T10:08:08.528Z,94.8
2022-11-20T10:09:23.791Z,94.9
2022-11-20T10:10:40.031Z,94.8
2022-11-20T10:13:12.507Z,95
2022-11-20T10:14:28.752Z,94.8
2022-11-20T10:15:44.997Z,94.8
2022-11-20T10:17:01.245Z,94.6
2022-11-20T10:18:17.474Z,95
2022-11-20T10:19:33.710Z,94.8
2022-11-20T10:20:49.958Z,95.1
2022-11-20T10:22:06.199Z,95.4
2022-11-20T10:23:22.448Z,94.5
2022-11-20T10:24:38.684Z,94.5
2022-11-20T10:25:53.949Z,94.4
2022-11-20T10:27:10.185Z,94.3
2022-11-20T10:28:26.415Z,94.5
2022-11-20T10:29:42.675Z,94.4
2022-11-20T10:30:58.909Z,94.8
2022-11-20T10:32:15.139Z,95
2022-11-20T10:33:31.388Z,95.3
2022-11-20T10:34:47.635Z,95.7
2022-11-20T10:36:03.873Z,95.7
2022-11-20T10:37:20.122Z,95.9
2022-11-20T10:38:36.351Z,95.8
2022-11-20T10:39:52.598Z,95.5
2022-11-20T10:41:08.832Z,95.9
2022-11-20T10:42:24.089Z,95.7
2022-11-20T10:43:40.332Z,95.4
2022-11-20T10:44:56.567Z,95.1
2022-11-20T10:46:12.809Z,95
2022-11-20T10:47:29.064Z,95.3
2022-11-20T10:48:45.310Z,95
2022-11-20T10:50:01.553Z,95
2022-11-20T10:51:17.790Z,94.9
2022-11-20T10:52:34.020Z,94.9
2022-11-20T10:53:50.277Z,95.1
2022-11-20T10:55:06.516Z,94.8
2022-11-20T10:56:22.757Z,94.7
2022-11-20T10:57:38.992Z,94.9
2022-11-20T10:58:54.246Z,94.9
2022-11-20T11:00:10.486Z,95.3
2022-11-20T11:01:25.761Z,95.4
2022-11-20T11:02:41.000Z,95.3
2022-11-20T11:03:56.277Z,94.8
2022-11-20T11:05:11.523Z,94.2
2022-11-20T11:06:27.777Z,93.7
2022-11-20T11:07:44.008Z,93.6
2022-11-20T11:09:00.258Z,93.6
2022-11-20T11:11:32.731Z,93.6
2022-11-20T11:12:48.982Z,93.5
2022-11-20T11:14:05.211Z,93.5
2022-11-20T11:15:21.467Z,93.5
2022-11-20T11:16:37.695Z,93.6
2022-11-20T11:17:53.935Z,93.5
2022-11-20T11:19:10.187Z,93.3
2022-11-20T11:20:26.430Z,93.2
2022-11-20T11:21:41.689Z,93
2022-11-20T11:22:57.917Z,93.3
2022-11-20T11:24:14.158Z,93.6
2022-11-20T11:25:30.414Z,93.4
2022-11-20T11:26:46.636Z,93.3
2022-11-20T11:28:02.886Z,93.3
2022-11-20T11:29:19.121Z,93.1
2022-11-20T11:30:35.376Z,93.1
2022-11-20T11:31:51.614Z,92.8
2022-11-20T11:33:07.845Z,92.8
2022-11-20T11:34:24.085Z,92.9
2022-11-20T11:35:40.335Z,92.6
2022-11-20T11:36:56.577Z,91.6
2022-11-20T11:38:11.832Z,91.6
2022-11-20T11:39:28.067Z,91.6
2022-11-20T11:40:44.315Z,91.5
2022-11-20T11:42:00.560Z,91.2
2022-11-20T11:43:16.786Z,90.7
2022-11-20T11:44:33.027Z,91.1
2022-11-20T11:45:49.286Z,90.4
2022-11-20T11:47:05.519Z,90.6
2022-11-20T11:48:21.756Z,89.9
2022-11-20T11:49:38.006Z,89.3
2022-11-20T11:50:54.237Z,89.4
2022-11-20T11:52:10.490Z,89.7
2022-11-20T11:53:26.714Z,89.4
2022-11-20T11:54:41.986Z,89
2022-11-20T11:55:58.226Z,89.5
2022-11-20T11:57:14.461Z,90.4
2022-11-20T11:58:30.709Z,90.4
2022-11-20T11:59:46.953Z,90.2
2022-11-20T12:01:03.181Z,89.8
2022-11-20T12:02:19.432Z,89.8
2022-11-20T12:03:35.673Z,89.6
2022-11-20T12:04:51.906Z,90.3
2022-11-20T12:06:08.156Z,90
2022-11-20T12:07:24.391Z,90.5
2022-11-20T12:08:40.642Z,90.7
2022-11-20T12:09:56.871Z,90.3
2022-11-20T12:12:28.380Z,89.4
2022-11-20T12:13:43.640Z,89.5
2022-11-20T12:14:59.883Z,89.4
2022-11-20T12:16:16.114Z,89.2
2022-11-20T12:17:32.356Z,89.3
2022-11-20T12:18:48.597Z,89.2
2022-11-20T12:20:04.845Z,88.8
2022-11-20T12:21:21.087Z,88.5
2022-11-20T12:22:37.321Z,88.8
2022-11-20T12:23:53.563Z,88.5
2022-11-20T12:25:09.802Z,88.2
2022-11-20T12:26:26.052Z,88.5
2022-11-20T12:27:42.285Z,88.5
2022-11-20T12:28:58.536Z,88.5
2022-11-20T12:30:13.783Z,88.6
2022-11-20T12:31:30.022Z,88.9
2022-11-20T12:32:46.266Z,88.6
2022-11-20T12:35:18.757Z,89
2022-11-20T12:36:34.983Z,89.3
2022-11-20T12:37:51.236Z,89.6
2022-11-20T12:39:07.464Z,89.3
2022-11-20T12:40:23.707Z,89.9
2022-11-20T12:41:39.948Z,89.9
2022-11-20T12:42:56.200Z,89.7
2022-11-20T12:44:12.434Z,90.1
2022-11-20T12:45:28.684Z,90.6
2022-11-20T12:46:43.942Z,90.7
2022-11-20T12:48:00.171Z,90.1
2022-11-20T12:49:16.405Z,90.2
2022-11-20T12:50:32.651Z,90.6
2022-11-20T12:51:48.887Z,90.4
2022-11-20T12:53:05.144Z,90.5
2022-11-20T12:54:21.372Z,90.2
2022-11-20T12:55:37.619Z,90.1
2022-11-20T12:58:10.110Z,89.9
2022-11-20T12:59:26.338Z,90
2022-11-20T13:00:42.579Z,90.2
2022-11-20T13:01:58.831Z,89.8
2022-11-20T13:03:14.081Z,89.7
2022-11-20T13:04:30.322Z,89.7
2022-11-20T13:05:46.572Z,89.7
2022-11-20T13:07:02.798Z,89.5
2022-11-20T13:08:19.045Z,89
2022-11-20T13:09:35.280Z,89.3
2022-11-20T13:10:51.521Z,89.7
2022-11-20T13:13:24.021Z,88.9
2022-11-20T13:14:40.248Z,89.6
2022-11-20T13:15:56.492Z,89.7
2022-11-20T13:17:12.731Z,89.3
2022-11-20T13:18:28.972Z,88.5
2022-11-20T13:19:44.231Z,88.4
2022-11-20T13:21:00.480Z,88.9
2022-11-20T13:22:16.717Z,88.6
2022-11-20T13:23:32.949Z,88.5
2022-11-20T13:24:49.201Z,88.6
2022-11-20T13:26:05.437Z,88.5
2022-11-20T13:27:21.676Z,88.1
2022-11-20T13:28:37.921Z,88.5
2022-11-20T13:29:54.159Z,88.5
2022-11-20T13:31:10.408Z,88.7
2022-11-20T13:32:26.637Z,88.6
2022-11-20T13:33:42.892Z,88.2
2022-11-20T13:34:59.131Z,88.3
2022-11-20T13:36:14.391Z,88.8
2022-11-20T13:38:46.856Z,88.4
2022-11-20T13:40:03.105Z,87.7
2022-11-20T13:41:19.343Z,87.7
2022-11-20T13:42:35.585Z,87.5
2022-11-20T13:43:51.830Z,87.4
2022-11-20T13:45:08.075Z,87.2
2022-11-20T13:46:24.305Z,87.2
2022-11-20T13:47:40.548Z,87.4
2022-11-20T13:48:56.793Z,87.1
2022-11-20T13:50:13.043Z,86.9
2022-11-20T13:51:29.265Z,86.8
2022-11-20T13:52:44.541Z,86.7
2022-11-20T13:54:00.767Z,86.5
2022-11-20T13:55:17.020Z,86.8
2022-11-20T13:56:33.250Z,86.9
2022-11-20T13:57:49.490Z,86.5
2022-11-20T13:59:05.733Z,86.7
2022-11-20T14:00:21.977Z,86.1
2022-11-20T14:01:38.225Z,86.1
2022-11-20T14:02:54.470Z,86
2022-11-20T14:04:10.699Z,85.9
2022-11-20T14:06:43.180Z,85.5
2022-11-20T14:07:59.426Z,85.2
2022-11-20T14:09:14.673Z,84.8
2022-11-20T14:10:30.922Z,85.1
2022-11-20T14:11:47.166Z,85.7
2022-11-20T14:13:03.406Z,85.5
2022-11-20T14:14:19.636Z,85.6
2022-11-20T14:15:35.876Z,85.8
2022-11-20T14:16:52.119Z,85.6
2022-11-20T14:18:08.364Z,85.7
2022-11-20T14:19:24.616Z,85.6
2022-11-20T14:21:57.083Z,85.8
2022-11-20T14:23:13.337Z,85.9
2022-11-20T14:24:29.576Z,86
2022-11-20T14:25:44.823Z,86.3
2022-11-20T14:27:01.064Z,86.6
2022-11-20T14:28:17.303Z,86.6
2022-11-20T14:29:33.550Z,86.9
2022-11-20T14:30:49.791Z,87.2
2022-11-20T14:32:06.039Z,87.4
2022-11-20T14:33:22.275Z,87.5
2022-11-20T14:34:38.523Z,87.7
2022-11-20T14:35:54.751Z,88
2022-11-20T14:37:11.002Z,88.3
2022-11-20T14:38:27.235Z,88.5
2022-11-20T14:39:43.474Z,88.7
2022-11-20T14:40:59.716Z,88.9
2022-11-20T14:42:14.986Z,89.1
2022-11-20T14:43:31.218Z,89.1
2022-11-20T14:44:47.458Z,89.3
2022-11-20T14:46:03.710Z,89.4
2022-11-20T14:47:19.956Z,89.8
2022-11-20T14:48:36.183Z,90
2022-11-20T14:49:52.438Z,90.3
2022-11-20T14:52:24.901Z,90.6
2022-11-20T14:53:41.145Z,90.6
2022-11-20T14:54:57.392Z,90.8
2022-11-20T14:56:13.636Z,90.8
2022-11-20T14:57:29.869Z,90.8
2022-11-20T14:58:45.132Z,90.7
2022-11-20T15:00:01.367Z,90.7
2022-11-20T15:01:17.616Z,90.6
2022-11-20T15:02:33.858Z,90.5
2022-11-20T15:03:50.088Z,90.4
2022-11-20T15:05:06.335Z,90.4
2022-11-20T15:06:22.581Z,90.5
2022-11-20T15:07:38.829Z,90.5
2022-11-20T15:08:55.056Z,90.5
2022-11-20T15:10:11.299Z,90.5
2022-11-20T15:11:27.544Z,90.4
2022-11-20T15:12:43.793Z,90.7
2022-11-20T15:14:00.015Z,90.7
2022-11-20T15:15:15.280Z,90.7
2022-11-20T15:16:31.527Z,90.9
2022-11-20T15:17:47.772Z,91.1
2022-11-20T15:19:04.003Z,91.2
2022-11-20T15:20:20.252Z,91.3
2022-11-20T15:21:36.484Z,91.4
2022-11-20T15:22:52.732Z,91.5
2022-11-20T15:24:08.972Z,91.6
2022-11-20T15:25:25.208Z,91.6
2022-11-20T15:26:41.456Z,91.8
2022-11-20T15:27:57.699Z,92
2022-11-20T15:29:13.942Z,92.2
2022-11-20T15:30:30.179Z,92.4
2022-11-20T15:31:45.430Z,92.5
2022-11-20T15:33:01.684Z,92.6
2022-11-20T15:34:17.924Z,92.7
2022-11-20T15:35:34.160Z,92.8
2022-11-20T15:36:50.406Z,92.9
2022-11-20T15:38:06.632Z,93
2022-11-20T15:39:22.872Z,93.1
2022-11-20T15:40:39.130Z,93.2
2022-11-20T15:41:55.355Z,93.3
2022-11-20T15:43:11.601Z,93.3
2022-11-20T15:45:44.078Z,93.3
2022-11-20T15:47:00.325Z,93.5
2022-11-20T15:48:15.590Z,93.8
2022-11-20T15:49:31.824Z,93.8
2022-11-20T15:50:48.074Z,93.8
2022-11-20T15:53:20.600Z,94
2022-11-20T15:54:36.888Z,94
2022-11-20T15:55:53.199Z,94.1
2022-11-20T15:57:09.487Z,94.3
2022-11-20T15:58:25.780Z,94.4
2022-11-20T15:59:42.077Z,94.6
2022-11-20T16:00:58.373Z,94.6
2022-11-20T16:02:14.663Z,94.6
2022-11-20T16:03:30.972Z,94.6
2022-11-20T16:04:46.279Z,94.8
2022-11-20T16:06:02.578Z,94.8
2022-11-20T16:07:18.860Z,94.8
2022-11-20T16:08:35.169Z,94.8
2022-11-20T16:09:51.461Z,95
2022-11-20T16:11:07.746Z,94.8
2022-11-20T16:12:24.045Z,94.8
2022-11-20T16:13:40.332Z,94.7
2022-11-20T16:14:56.626Z,94.8
2022-11-20T16:16:12.931Z,94.8
2022-11-20T16:17:29.215Z,94.9
2022-11-20T16:18:45.511Z,94.9
2022-11-20T16:20:01.811Z,94.9
2022-11-20T16:21:18.226Z,94.8
2022-11-20T16:22:34.523Z,94.8
2022-11-20T16:23:50.829Z,94.8
2022-11-20T16:25:07.127Z,95.3
2022-11-20T16:26:23.416Z,95.6
2022-11-20T16:27:39.712Z,95.8
2022-11-20T16:28:55.018Z,95.6
2022-11-20T16:30:11.327Z,95.5
2022-11-20T16:31:27.622Z,95.3
2022-11-20T16:32:43.918Z,95.4
2022-11-20T16:34:00.212Z,95.4
2022-11-20T16:35:16.511Z,95.3
2022-11-20T16:36:32.804Z,95.4
2022-11-20T16:37:49.084Z,95.4
2022-11-20T16:39:05.385Z,95.3
2022-11-20T16:40:21.682Z,95.3
2022-11-20T16:41:37.968Z,95.4
2022-11-20T16:44:10.564Z,95.4
2022-11-20T16:45:25.890Z,95.5
2022-11-20T16:46:42.172Z,95.7
2022-11-20T16:47:58.471Z,95.8
2022-11-20T16:49:14.758Z,96
2022-11-20T16:50:31.062Z,96
2022-11-20T16:51:47.350Z,95.8
2022-11-20T16:54:19.952Z,95.4
2022-11-20T16:55:36.249Z,95.5
2022-11-20T16:56:52.540Z,95.5
2022-11-20T16:58:08.822Z,95.4
2022-11-20T16:59:25.126Z,95.3
2022-11-20T17:00:41.413Z,95.3
2022-11-20T17:01:56.728Z,95.3
2022-11-20T17:03:13.034Z,95.3
2022-11-20T17:04:29.333Z,95.2
2022-11-20T17:05:45.617Z,95.2
2022-11-20T17:07:01.916Z,95.4
2022-11-20T17:09:34.509Z,95.4
2022-11-20T17:10:49.832Z,95.3
2022-11-20T17:12:05.137Z,95.3
2022-11-20T17:13:21.425Z,95.3
2022-11-20T17:14:37.733Z,95.3
2022-11-20T17:15:54.029Z,95.3
2022-11-20T17:17:10.306Z,95.4
2022-11-20T17:18:26.610Z,95.4
2022-11-20T17:19:42.902Z,95.4
2022-11-20T17:20:59.192Z,95.4
2022-11-20T17:22:15.503Z,95.4
2022-11-20T17:23:31.787Z,95.4
2022-11-20T17:24:47.109Z,95.5
2022-11-20T17:26:02.414Z,95.4
2022-11-20T17:27:18.715Z,95.4
2022-11-20T17:28:35.017Z,95.3
2022-11-20T17:29:51.303Z,95.4
2022-11-20T17:31:07.596Z,95.5
2022-11-20T17:32:23.886Z,95.4
2022-11-20T17:33:40.183Z,95.5
2022-11-20T17:34:56.478Z,95.3
2022-11-20T17:36:12.776Z,95.2